createdAt,value
2023-03-06T00:02:50.544Z,47.10
2023-03-06T00:05:11.957Z,47.10
2023-03-06T00:07:49.804Z,43.60
2023-03-06T00:10:33.133Z,43.60
2023-03-06T00:12:14.313Z,43.60
2023-03-06T00:12:51.126Z,43.90
2023-03-06T00:17:50.353Z,48.30
2023-03-06T00:22:50.692Z,47.60
2023-03-06T00:27:50.499Z,44.50
2023-03-06T00:30:29.866Z,44.50
2023-03-06T00:32:51.531Z,44.60
2023-03-06T00:37:49.762Z,48.20
2023-03-06T00:42:50.115Z,46.30
2023-03-06T00:47:49.972Z,46.80
2023-03-06T00:51:38.349Z,46.80
2023-03-06T00:52:49.985Z,49.30
2023-03-06T00:57:50.148Z,44.30
2023-03-06T01:02:50.478Z,44.30
2023-03-06T01:07:49.800Z,45.40
2023-03-06T01:12:50.021Z,47.20
2023-03-06T01:17:51.902Z,45.00
2023-03-06T01:18:38.489Z,45.00
2023-03-06T01:19:19.046Z,45.00
2023-03-06T01:22:49.834Z,43.60
2023-03-06T01:27:50.656Z,51.30
2023-03-06T01:32:49.725Z,48.80
2023-03-06T01:37:49.697Z,48.80
2023-03-06T01:42:50.062Z,47.90
2023-03-06T01:47:49.739Z,55.00
2023-03-06T01:52:52.123Z,61.10
2023-03-06T01:57:54.873Z,59.30
2023-03-06T02:02:52.859Z,53.10
2023-03-06T02:05:15.213Z,53.10
2023-03-06T02:07:50.504Z,50.70
2023-03-06T02:08:51.773Z,50.70
2023-03-06T02:12:51.015Z,53.30
2023-03-06T02:17:51.151Z,44.70
2023-03-06T02:22:56.172Z,44.40
2023-03-06T02:24:59.052Z,44.40
2023-03-06T02:27:49.663Z,48.60
2023-03-06T02:32:50.237Z,47.60
2023-03-06T02:37:50.373Z,44.10
2023-03-06T02:42:55.278Z,42.60
2023-03-06T02:47:50.017Z,45.60
2023-03-06T02:52:49.872Z,42.70
2023-03-06T02:57:49.703Z,43.90
2023-03-06T03:02:50.704Z,41.90
2023-03-06T03:07:49.590Z,44.70
2023-03-06T03:12:49.878Z,37.40
2023-03-06T03:16:13.017Z,37.90
2023-03-06T03:17:49.667Z,37.90
2023-03-06T03:22:51.837Z,43.00
2023-03-06T03:27:50.372Z,39.00
2023-03-06T03:30:22.407Z,39.00
2023-03-06T03:32:31.953Z,41.10
2023-03-06T03:32:49.887Z,41.10
2023-03-06T03:37:51.648Z,39.20
2023-03-06T03:42:49.801Z,36.90
2023-03-06T03:47:49.637Z,33.10
2023-03-06T03:52:49.548Z,36.70
2023-03-06T03:57:49.886Z,37.40
2023-03-06T04:02:48.557Z,36.60
2023-03-06T04:02:49.400Z,36.60
2023-03-06T04:04:21.570Z,36.60
2023-03-06T04:07:49.639Z,35.30
2023-03-06T04:09:53.301Z,35.30
2023-03-06T04:12:49.701Z,37.20
2023-03-06T04:17:49.640Z,39.50
2023-03-06T04:19:14.811Z,39.50
2023-03-06T04:22:49.924Z,41.10
2023-03-06T04:27:49.589Z,58.40
2023-03-06T04:32:49.725Z,45.40
2023-03-06T04:36:32.054Z,39.80
2023-03-06T04:37:49.507Z,39.80
2023-03-06T04:42:49.818Z,43.50
2023-03-06T04:47:49.797Z,42.00
2023-03-06T04:52:49.689Z,40.90
2023-03-06T04:57:49.497Z,40.50
2023-03-06T05:02:50.365Z,41.20
2023-03-06T05:07:49.633Z,37.10
2023-03-06T05:12:49.945Z,40.50
2023-03-06T05:17:49.728Z,40.30
2023-03-06T05:22:50.296Z,38.00
2023-03-06T05:27:49.485Z,38.30
2023-03-06T05:32:50.384Z,38.90
2023-03-06T05:37:49.740Z,38.60
2023-03-06T05:42:49.710Z,42.20
2023-03-06T05:47:49.872Z,40.30
2023-03-06T05:52:49.591Z,40.00
2023-03-06T05:57:50.134Z,42.90
2023-03-06T06:02:49.975Z,40.00
2023-03-06T06:07:49.466Z,36.80
2023-03-06T06:12:49.648Z,38.90
2023-03-06T06:17:50.109Z,36.20
2023-03-06T06:22:50.347Z,39.20
2023-03-06T06:27:49.385Z,36.40
2023-03-06T06:32:49.872Z,37.20
2023-03-06T06:37:49.639Z,37.20
2023-03-06T06:42:51.561Z,37.00
2023-03-06T06:47:50.009Z,36.40
2023-03-06T06:52:49.502Z,37.20
2023-03-06T06:57:49.378Z,34.20
2023-03-06T07:02:50.343Z,36.50
2023-03-06T07:07:50.508Z,34.00
2023-03-06T07:12:49.381Z,33.80
2023-03-06T07:17:50.346Z,30.70
2023-03-06T07:22:51.656Z,30.80
2023-03-06T07:27:53.616Z,32.40
2023-03-06T07:32:51.608Z,26.70
2023-03-06T07:37:50.194Z,26.50
2023-03-06T07:42:52.596Z,34.30
2023-03-06T07:47:50.090Z,26.40
2023-03-06T07:52:50.580Z,25.00
2023-03-06T07:57:49.949Z,26.70
2023-03-06T08:02:49.783Z,19.10
2023-03-06T08:07:49.342Z,13.50
2023-03-06T08:12:49.383Z,13.00
2023-03-06T08:17:49.760Z,14.70
2023-03-06T08:22:49.556Z,14.90
2023-03-06T08:27:49.566Z,18.80
2023-03-06T08:32:49.741Z,18.80
2023-03-06T08:37:49.347Z,20.30
2023-03-06T08:42:49.398Z,17.40
2023-03-06T08:47:49.909Z,18.60
2023-03-06T08:52:49.325Z,16.80
2023-03-06T08:57:49.485Z,17.90
2023-03-06T09:02:49.931Z,21.80
2023-03-06T09:07:49.428Z,18.90
2023-03-06T09:12:52.444Z,20.10
2023-03-06T09:17:50.186Z,17.40
2023-03-06T09:22:49.339Z,22.30
2023-03-06T09:28:01.772Z,19.60
2023-03-06T09:32:49.566Z,16.10
2023-03-06T09:37:49.332Z,17.10
2023-03-06T09:42:49.585Z,16.80
2023-03-06T09:47:55.086Z,16.90
2023-03-06T09:53:01.797Z,21.20
2023-03-06T09:57:54.671Z,19.50
2023-03-06T10:02:59.969Z,21.70
2023-03-06T10:07:54.245Z,20.40
2023-03-06T10:13:01.252Z,16.20
2023-03-06T10:17:49.937Z,19.90
2023-03-06T10:23:03.037Z,17.40
2023-03-06T10:27:52.980Z,16.70
2023-03-06T10:32:54.702Z,19.40
2023-03-06T10:37:49.399Z,17.20
2023-03-06T10:42:56.200Z,15.60
2023-03-06T10:47:49.890Z,15.10
2023-03-06T10:52:58.591Z,17.20
2023-03-06T10:57:49.283Z,17.00
2023-03-06T11:03:04.183Z,15.60
2023-03-06T11:07:54.699Z,17.50
2023-03-06T11:12:56.452Z,13.30
2023-03-06T11:17:53.995Z,11.50
2023-03-06T11:22:54.012Z,13.10
2023-03-06T11:27:55.155Z,13.70
2023-03-06T11:32:54.599Z,19.00
2023-03-06T11:37:53.205Z,19.60
2023-03-06T11:42:58.506Z,20.00
2023-03-06T11:47:57.076Z,16.60
2023-03-06T11:52:53.469Z,18.60
2023-03-06T11:57:57.529Z,18.10
2023-03-06T12:03:03.363Z,18.30
2023-03-06T12:07:57.057Z,19.10
2023-03-06T12:13:06.765Z,17.90
2023-03-06T12:17:58.949Z,12.60
2023-03-06T12:22:58.059Z,15.10
2023-03-06T12:27:55.238Z,16.40
2023-03-06T12:32:55.008Z,15.40
2023-03-06T12:38:02.410Z,16.30
2023-03-06T12:43:04.861Z,16.00
2023-03-06T12:47:53.384Z,17.20
2023-03-06T12:52:51.463Z,17.80
2023-03-06T12:57:49.983Z,17.40
2023-03-06T13:03:05.512Z,15.20
2023-03-06T13:07:59.816Z,17.70
2023-03-06T13:12:54.871Z,19.20
2023-03-06T13:17:49.185Z,23.10
2023-03-06T13:22:49.232Z,21.70
2023-03-06T13:28:00.227Z,17.70
2023-03-06T13:32:51.801Z,19.20
2023-03-06T13:37:49.687Z,20.50
2023-03-06T13:43:01.171Z,18.60
2023-03-06T13:48:21.174Z,25.60
2023-03-06T13:53:02.429Z,34.20
2023-03-06T13:58:02.477Z,24.10
2023-03-06T14:03:02.185Z,23.40
2023-03-06T14:08:03.166Z,26.10
2023-03-06T14:13:00.404Z,25.30
2023-03-06T14:17:55.491Z,25.10
2023-03-06T14:22:49.402Z,29.70
2023-03-06T14:27:55.003Z,31.50
2023-03-06T14:32:51.475Z,29.70
2023-03-06T14:37:52.245Z,34.50
2023-03-06T14:43:08.979Z,33.10
2023-03-06T14:47:50.666Z,32.00
2023-03-06T14:52:54.404Z,30.40
2023-03-06T14:57:54.987Z,42.00
2023-03-06T15:02:50.613Z,32.30
2023-03-06T15:07:51.952Z,37.80
2023-03-06T15:12:49.119Z,40.80
2023-03-06T15:17:49.244Z,36.80
2023-03-06T15:22:49.569Z,36.80
2023-03-06T15:27:50.881Z,41.00
2023-03-06T15:32:49.277Z,39.10
2023-03-06T15:37:49.678Z,42.00
2023-03-06T15:42:49.413Z,44.60
2023-03-06T15:47:51.266Z,41.90
2023-03-06T15:52:49.463Z,49.50
2023-03-06T15:57:51.970Z,48.00
2023-03-06T16:02:49.103Z,46.90
2023-03-06T16:07:49.955Z,46.00
2023-03-06T16:12:52.948Z,42.60
2023-03-06T16:17:48.934Z,42.30
2023-03-06T16:22:50.326Z,43.80
2023-03-06T16:27:54.443Z,46.00
2023-03-06T16:32:49.291Z,43.30
2023-03-06T16:37:49.718Z,45.10
2023-03-06T16:42:50.027Z,47.80
2023-03-06T16:47:49.691Z,46.10
2023-03-06T16:52:50.811Z,47.10
2023-03-06T16:57:49.305Z,46.60
2023-03-06T17:02:50.469Z,49.80
2023-03-06T17:07:49.481Z,49.60
2023-03-06T17:12:49.137Z,50.00
2023-03-06T17:17:50.619Z,48.90
2023-03-06T17:22:49.406Z,54.20
2023-03-06T17:27:49.119Z,48.20
2023-03-06T17:32:48.879Z,48.60
2023-03-06T17:37:49.958Z,44.90
2023-03-06T17:42:49.778Z,48.70
2023-03-06T17:47:52.473Z,49.10
2023-03-06T17:52:49.287Z,45.20
2023-03-06T17:57:50.910Z,44.50
2023-03-06T18:02:49.007Z,42.10
2023-03-06T18:07:49.170Z,40.80
2023-03-06T18:12:49.293Z,41.30
2023-03-06T18:17:49.035Z,39.40
2023-03-06T18:22:49.134Z,40.40
2023-03-06T18:27:48.813Z,41.70
2023-03-06T18:32:50.017Z,43.20
2023-03-06T18:37:49.020Z,44.60
2023-03-06T18:42:50.861Z,41.40
2023-03-06T18:47:48.849Z,43.90
2023-03-06T18:52:49.477Z,40.40
2023-03-06T18:57:48.810Z,44.40
2023-03-06T19:02:49.022Z,45.60
2023-03-06T19:07:48.980Z,41.70
2023-03-06T19:12:48.945Z,42.50
2023-03-06T19:17:48.865Z,43.10
2023-03-06T19:22:49.796Z,44.20
2023-03-06T19:27:48.887Z,40.10
2023-03-06T19:32:48.887Z,43.90
2023-03-06T19:37:49.287Z,42.90
2023-03-06T19:42:49.451Z,43.70
2023-03-06T19:47:49.568Z,43.90
2023-03-06T19:52:51.378Z,46.70
2023-03-06T19:57:48.906Z,44.30
2023-03-06T20:02:49.014Z,43.50
2023-03-06T20:07:49.661Z,39.50
2023-03-06T20:12:48.934Z,37.70
2023-03-06T20:18:09.776Z,35.90
2023-03-06T20:22:48.829Z,30.50
2023-03-06T20:27:48.821Z,34.80
2023-03-06T20:32:49.254Z,33.30
2023-03-06T20:37:48.817Z,36.90
2023-03-06T20:42:48.858Z,30.20
2023-03-06T20:47:48.915Z,28.30
2023-03-06T20:52:52.638Z,29.10
2023-03-06T20:57:49.417Z,28.00
2023-03-06T21:02:49.061Z,27.10
2023-03-06T21:07:48.712Z,26.00
2023-03-06T21:12:48.973Z,23.80
2023-03-06T21:17:48.843Z,26.90
2023-03-06T21:22:50.246Z,29.80
2023-03-06T21:27:49.112Z,32.50
2023-03-06T21:32:50.135Z,31.50
2023-03-06T21:37:48.862Z,27.90
2023-03-06T21:42:48.793Z,30.70
2023-03-06T21:47:49.079Z,29.20
2023-03-06T21:52:48.931Z,30.90
2023-03-06T21:57:49.847Z,33.50
2023-03-06T22:02:49.391Z,33.00
2023-03-06T22:07:48.678Z,32.40
2023-03-06T22:12:48.902Z,35.20
2023-03-06T22:17:48.899Z,37.60
2023-03-06T22:22:48.778Z,38.80
2023-03-06T22:27:48.723Z,39.80
2023-03-06T22:32:51.446Z,44.30
2023-03-06T22:37:48.798Z,42.40
2023-03-06T22:42:48.810Z,43.50
2023-03-06T22:47:48.927Z,40.50
2023-03-06T22:52:48.731Z,42.90
2023-03-06T22:57:48.877Z,39.60
2023-03-06T23:02:48.853Z,44.20
2023-03-06T23:07:48.588Z,43.30
2023-03-06T23:12:48.759Z,42.90
2023-03-06T23:17:50.227Z,48.70
2023-03-06T23:22:48.606Z,50.70
2023-03-06T23:27:48.661Z,51.00
2023-03-06T23:32:48.916Z,51.40
2023-03-06T23:37:48.631Z,50.10
2023-03-06T23:42:48.758Z,54.00
2023-03-06T23:47:48.635Z,53.00
2023-03-06T23:52:50.537Z,54.30
2023-03-06T23:57:48.705Z,51.00
